Aviation Digital Data Service (ADDS)

Output produced by METARs form (2129 UTC 29 August 2016)
found at http://aviationweather.gov/adds/metars/
 
KPIT 292056Z 2921/3024 02004KT P6SM FEW040